^^

METAR Αεροδρομίων

σε ακτίνα 500 χλμ


 Τι είναι το METAR ??? 

Πρώτο είναι το πλησιέστερο αεροδρόμιο (Θεσ/νίκη LGTS 6χλμ) και
τέλος το πιο απομακρυσμένο (Κων/πολη LTBA 494χλμ).
Επίσης μερικές αναφορές, παρουσιάζουν λιγότερα στοιχεία γιατί
οι αρχικές είναι ελλιπείς ή έχουν λάθος μορφοποίηση.
Πηγαίνετε στις Αναφορές METAR από Μετεωρολογικούς Σταθμούς )  
Αλφαβητική Λίστα Γρήγορης Μετάβασης στα 48 Αεροδρόμια
Αλβανία: Τίρανα  Βουλγαρία: Γκόρνα Οριαχόβιτσα  Μπουργκάς  Σόφια  Φιλιππούπολη  Ελλάδα: Αθήνα  Αλεξανδρούπολη  Ανδραβίδα  Βόλος  Ελευσίνα  Ζάκυνθος  Θεσσαλονίκη  Ιωάννινα  Καβάλα  Καλαμάτα  Κέρκυρα  Κεφαλονιά  Κοζάνη  Κύθηρα
Λέσβος  Λήμνος  Μύκονος  Νάξος  Πάρος  Πάτρα  Πρέβεζα  Σάμος  Σκιάθος  Σκύρος  Σύρος  Χίος  Ιταλία: Γκαλατίνα  Μπρίντιζι  Σάντα Μαρία ντι Λέουκα  Ταράντο  Κόσοβο: Πρίστινα  Κροατία: Ντουμπρόβνικ  Μαυροβούνιο: Ποντγκόριτσα  Τιβάτ
Δ.Β.Μ: Οχρίδα  Σκόπια  Ρουμανία: Κραϊόβα  Σερβία: Κράλιεβο  Νις  Ούζιτσε  Τουρκία: Κωνσταντινούπολη  Σμύρνη Τσορλού 
(ΒΠΑ)Βάση Πολεμικής Αεροπορίας
LGTS - Αεροδρόμιο "Μακεδονία"
Θεσσαλονίκη - Κεντρική Μακεδονία - Ελλάδα
Γ.Πλάτ: 40.5167 - Γ.Μήκ: 22.9667 - Υψόμ: 7μ
Απόσταση από το Vouhead Weather: (Ν) 6χλμ
Ενημερώθηκε: 29/03/2020 01:20
Ασθενής βροχή, Κυρίως νεφελώδης
Ασθενής βροχή, Κυρίως νεφελώδης
 Άνεμος από Μεταβλητός
Άνεμος: Μεταβλητός 4 km/h
Θερμοκρασία: 8°C
Σημ. Δρόσου: 8°C
Υγρασία: 100%
Βαρόμετρο: 1012 hPa
Περίληψη: Ασθενής βροχή
Σύννεφα: Κυρίως νεφελώδης
Ορατότητα: 10 km
Ανάλυση νέφωσης: Διάσπαρτα νέφη 244 m
Κυρίως νεφελώδης 762 m
2020/03/28 23:20 LGTS 282320Z VRB02KT 9999 -RA FEW008 BKN025 08/08 Q1012 NOSIG
LGKZ - Αεροδρόμιο "Φίλιππος"
Κοζάνη - Δυτική Μακεδονία - Ελλάδα
Γ.Πλάτ: 40.2833 - Γ.Μήκ: 21.8333 - Υψόμ: 628μ
Απόσταση από το Vouhead Weather: (ΔΝΔ) 102χλμ
Ενημερώθηκε: 29/03/2020 01:20
Ασθενής βροχή
Ασθενής βροχή
 Άνεμος από Μεταβλητός
Άνεμος: Μεταβλητός 2 km/h
Θερμοκρασία: 6°C
Σημ. Δρόσου: 4°C
Υγρασία: 87%
Βαρόμετρο: 1012 hPa
Περίληψη: Ασθενής βροχή
2020/03/28 23:20 LGKZ 282320Z AUTO VRB01KT //// -RA ////// 06/04 Q1012 RE//
 
LGKV - Αεροδρόμιο "Μέγας Αλέξανδρος"
Καβάλα(Χρυσούπολη) - Α. Μακεδονία & Θράκη - Ελλάδα
Γ.Πλάτ: 40.9167 - Γ.Μήκ: 24.6167 - Υψόμ: 5μ
Απόσταση από το Vouhead Weather: (ΑΒΑ) 144χλμ
Ενημερώθηκε: 28/03/2020 19:50
ΜΗ ΠΡΟΣΦΑΤΟ METAR
Κυρίως νεφελώδης
Κυρίως νεφελώδης
 Άνεμος από ΝΔ
Άνεμος: ΝΔ 15 km/h
Θερμοκρασία: 10°C
Ψυχρότητα Ανέμου: 8°C
Σημ. Δρόσου: 8°C
Υγρασία: 88%
Βαρόμετρο: 1012 hPa
Σύννεφα: Κυρίως νεφελώδης
Ορατότητα: 10 km
Ανάλυση νέφωσης: Διάσπαρτα νέφη 457 m
Μερικώς νεφελώδης 914 m
Κυρίως νεφελώδης 2134 m
2020/03/28 17:50 LGKV 281750Z 23008KT 9999 FEW015 SCT030 BKN070 10/08 Q1012
LGBL - Αεροδρόμιο στη Νέα Αγχίαλο
Βόλος(Αλμυρός) - Θεσσαλία - Ελλάδα
Γ.Πλάτ: 39.2167 - Γ.Μήκ: 22.8000 - Υψόμ: 26μ
Απόσταση από το Vouhead Weather: (Ν) 151χλμ
Ενημερώθηκε: 29/03/2020 00:50
Κυρίως νεφελώδης
Κυρίως νεφελώδης
 Άνεμος από Δ
Άνεμος: Δ 7 km/h
Θερμοκρασία: 9°C
Ψυχρότητα Ανέμου: 8°C
Σημ. Δρόσου: 9°C
Υγρασία: 100%
Βαρόμετρο: 1012 hPa
Σύννεφα: Κυρίως νεφελώδης
Ορατότητα: 10 km
Ανάλυση νέφωσης: Διάσπαρτα νέφη 366 m
Μερικώς νεφελώδης 762 m
Κυρίως νεφελώδης 2438 m
2020/03/28 22:50 LGBL 282250Z 28004KT 9999 FEW012 SCT025 BKN080 09/09 Q1012
 
LGSK - Αεροδρόμ. "Αλέξανδρος Παπαδιαμάντης"
Σκιάθος - Θεσσαλία(Σποράδες) - Ελλάδα
Γ.Πλάτ: 39.1833 - Γ.Μήκ: 23.5000 - Υψόμ: 15μ
Απόσταση από το Vouhead Weather: (ΝΝΑ) 160χλμ
Ενημερώθηκε: 28/03/2020 13:50
ΜΗ ΠΡΟΣΦΑΤΟ METAR
Μερικώς νεφελώδης
Μερικώς νεφελώδης
 Άνεμος από ΒΔ
Άνεμος: ΒΔ 7 km/h
Θερμοκρασία: 14°C
Σημ. Δρόσου: 8°C
Υγρασία: 67%
Βαρόμετρο: 1013 hPa
Σύννεφα: Μερικώς νεφελώδης
Ορατότητα: 10 km
Ανάλυση νέφωσης: Διάσπαρτα νέφη 366 m
Μερικώς νεφελώδης 762 m
2020/03/28 11:50 LGSK 281150Z 32004KT 9999 FEW012 SCT025 14/08 Q1013
LWSK - Αεροδρόμιο "Σκόπγιε Ιντερνάσιοναλ Έιρπορτ"
Σκόπια(Πέτροβακ) - Περιφέρεια Σκοπίων - Δ.Β.Μ
Γ.Πλάτ: 41.9667 - Γ.Μήκ: 21.6333 - Υψόμ: 239μ
Απόσταση από το Vouhead Weather: (ΒΔ) 192χλμ
Ενημερώθηκε: 29/03/2020 01:30
Διάσπαρτα νέφη
Διάσπαρτα νέφη
 Άνεμος από ΒΒΑ
Άνεμος: ΒΒΑ 4 km/h
Θερμοκρασία: 5°C
Σημ. Δρόσου: 4°C
Υγρασία: 93%
Βαρόμετρο: 1013 hPa
Σύννεφα: Διάσπαρτα νέφη
Ορατότητα: 10 km
Ανάλυση νέφωσης: Διάσπαρτα νέφη 2743 m
2020/03/28 23:30 LWSK 282330Z 03002KT 9999 FEW090 05/04 Q1013 NOSIG
 
LWOH - Αεροδρόμιο "Σεντ Πολ Δε Απόστλ"
Οχρίδα - Νοτιοδυτική Περιφέρεια - Δ.Β.Μ
Γ.Πλάτ: 41.9667 - Γ.Μήκ: 21.6333 - Υψόμ: 239μ
Απόσταση από το Vouhead Weather: (ΔΒΔ) 193χλμ
Ενημερώθηκε: 28/03/2020 18:00
ΜΗ ΠΡΟΣΦΑΤΟ METAR
Μερικώς νεφελώδης
Μερικώς νεφελώδης
 Άνεμος από ΒΒΔ
Άνεμος: ΒΒΔ 11 km/h
Θερμοκρασία: 8°C
Ψυχρότητα Ανέμου: 6°C
Σημ. Δρόσου: 3°C
Υγρασία: 71%
Βαρόμετρο: 1011 hPa
Σύννεφα: Μερικώς νεφελώδης
Ορατότητα: 10 km
Ανάλυση νέφωσης: Μερικώς νεφελώδης 1219 m
2020/03/28 16:00 LWOH 281600Z 34006KT 9999 SCT040 08/03 Q1011
LGLM - Αεροδρόμιο "Ήφαιστος"
Λήμνος - Βόρειο Αιγαίο - Ελλάδα
Γ.Πλάτ: 39.9167 - Γ.Μήκ: 25.2333 - Υψόμ: 5μ
Απόσταση από το Vouhead Weather: (ΑΝΑ) 205χλμ
Ενημερώθηκε: 29/03/2020 01:20
Ασθενής βροχή, Μερικώς νεφελώδης
Ασθενής βροχή, Μερικώς νεφελώδης
 Άνεμος από calm
Άνεμος: Απνοια
Θερμοκρασία: 9°C
Σημ. Δρόσου: 8°C
Υγρασία: 94%
Βαρόμετρο: 1011 hPa
Περίληψη: Ασθενής βροχή
Σύννεφα: Μερικώς νεφελώδης
Ορατότητα: 10 km
Ανάλυση νέφωσης: Διάσπαρτα νέφη 305 m
Μερικώς νεφελώδης 762 m
2020/03/28 23:20 LGLM 282320Z 00000KT 9999 -RA FEW010 SCT025 09/08 Q1011
 
LGIO - Αεροδρόμιο "Βασιλεύς Πύρρος"
Ιωάννινα - Ήπειρος - Ελλάδα
Γ.Πλάτ: 39.7000 - Γ.Μήκ: 20.8167 - Υψόμ: 476μ
Απόσταση από το Vouhead Weather: (ΔΝΔ) 207χλμ
Ενημερώθηκε: 29/03/2020 01:20
Ασθενής βροχή
Ασθενής βροχή
 Άνεμος από calm
Άνεμος: Απνοια
Θερμοκρασία: 6°C
Σημ. Δρόσου: 6°C
Υγρασία: 100%
Βαρόμετρο: 1013 hPa
Περίληψη: Ασθενής βροχή
2020/03/28 23:20 LGIO 282320Z AUTO 00000KT //// -RA ////// 06/06 Q1013 RE//
LGSY - Αεροδρόμιο στη Σκύρο
Σκύρος - Θεσσαλία(Σποράδες) - Ελλάδα
Γ.Πλάτ: 38.9667 - Γ.Μήκ: 24.4833 - Υψόμ: 15μ
Απόσταση από το Vouhead Weather: (ΝΑ) 220χλμ
Ενημερώθηκε: 28/03/2020 20:50
ΜΗ ΠΡΟΣΦΑΤΟ METAR
Μερικώς νεφελώδης
Μερικώς νεφελώδης
 Άνεμος από Ν
Άνεμος: Ν 6 km/h
Θερμοκρασία: 9°C
Σημ. Δρόσου: 7°C
Υγρασία: 87%
Βαρόμετρο: 1012 hPa
Σύννεφα: Μερικώς νεφελώδης
Ορατότητα: 10 km
Ανάλυση νέφωσης: Μερικώς νεφελώδης 610 m
2020/03/28 18:50 LGSY 281850Z 17003KT 9999 SCT020 09/07 Q1012 BLU
 
LBPD - Αεροδρόμιο στη Φιλιππούπολη
Φιλιππούπολη(Κρούμοβο) - Πλόβντιβ - Βουλγαρία
Γ.Πλάτ: 42.1333 - Γ.Μήκ: 24.8000 - Υψόμ: 185μ
Απόσταση από το Vouhead Weather: (ΒΑ) 231χλμ
Ενημερώθηκε: 29/03/2020 01:30
Νεφοσκεπής
Νεφοσκεπής
 Άνεμος από ΝΝΔ
Άνεμος: ΝΝΔ 6 km/h
Θερμοκρασία: 9°C
Σημ. Δρόσου: 6°C
Υγρασία: 82%
Βαρόμετρο: 1010 hPa
Σύννεφα: Νεφοσκεπής
Ορατότητα: 10 km
Ανάλυση νέφωσης: Διάσπαρτα νέφη 2256 m
Νεφοσκεπής 2682 m
2020/03/28 23:30 LBPD 282330Z AUTO 20003KT 170V240 9999 FEW074 OVC088 09/06 Q1010
LBSF - Αεροδρόμιο στη Σόφια
Σόφια(Βράτσντεμπνα) - Μητρ. περ. Σόφιας - Βουλγαρία
Γ.Πλάτ: 42.6500 - Γ.Μήκ: 23.3833 - Υψόμ: 595μ
Απόσταση από το Vouhead Weather: (Β) 234χλμ
Ενημερώθηκε: 29/03/2020 01:30
Μερικώς νεφελώδης
Μερικώς νεφελώδης
 Άνεμος από Β
Άνεμος: Β 7 km/h
Θερμοκρασία: 4°C
Ψυχρότητα Ανέμου: 2°C
Σημ. Δρόσου: 0°C
Υγρασία: 75%
Βαρόμετρο: 1011 hPa
Σύννεφα: Μερικώς νεφελώδης
Ορατότητα: 8 km
2020/03/28 23:30 LBSF 282330Z 36004KT 8000 NSC 04/00 Q1011 NOSIG
 
LGAL - Αεροδρόμιο "Δημόκριτος"
Αλεξανδρούπολη - Α. Μακεδονία & Θράκη - Ελλάδα
Γ.Πλάτ: 40.8500 - Γ.Μήκ: 25.9167 - Υψόμ: 3μ
Απόσταση από το Vouhead Weather: (Α) 250χλμ
Ενημερώθηκε: 28/03/2020 19:50
ΜΗ ΠΡΟΣΦΑΤΟ METAR
Ασθενής βροχή, Κυρίως νεφελώδης
Ασθενής βροχή, Κυρίως νεφελώδης
 Άνεμος από calm
Άνεμος: Απνοια
Θερμοκρασία: 10°C
Σημ. Δρόσου: 8°C
Υγρασία: 88%
Βαρόμετρο: 1011 hPa
Περίληψη: Ασθενής βροχή
Σύννεφα: Κυρίως νεφελώδης
Ορατότητα: 10 km
Ανάλυση νέφωσης: Διάσπαρτα νέφη 457 m
Κυρίως νεφελώδης 762 m
2020/03/28 17:50 LGAL 281750Z 00000KT 9999 -RA FEW015 BKN025 10/08 Q1011
BKPR - Αεροδρόμιο "Αντεμ Γιασάρι"
Πρίστινα - Πρίστινα - Κόσοβο
(Ελληνικό Υπουργείο Εξωτερικών, σχετικά με το Κόσοβο)
Γ.Πλάτ: 42.5833 - Γ.Μήκ: 21.0333 - Υψόμ: 576μ
Απόσταση από το Vouhead Weather: (ΒΔ) 276χλμ
Ενημερώθηκε: 29/03/2020 01:30
Μερικώς νεφελώδης
Μερικώς νεφελώδης
 Άνεμος από Μεταβλητός
Άνεμος: Μεταβλητός 6 km/h
Θερμοκρασία: 5°C
Σημ. Δρόσου: -1°C
Υγρασία: 66%
Βαρόμετρο: 1012 hPa
Σύννεφα: Μερικώς νεφελώδης
Ορατότητα: 10 km
Ανάλυση νέφωσης: Διάσπαρτα νέφη 1219 m
Μερικώς νεφελώδης 2743 m
2020/03/28 23:30 BKPR 282330Z VRB03KT 9999 FEW040 SCT090 05/M01 Q1012 NOSIG RMK 17190095
 
LGKR - Αεροδρόμιο "Ιωάννης Καποδίστριας"
Κέρκυρα - Ιόνιοι Νήσοι - Ελλάδα
Γ.Πλάτ: 39.6000 - Γ.Μήκ: 19.9167 - Υψόμ: 2μ
Απόσταση από το Vouhead Weather: (ΔΝΔ) 281χλμ
Ενημερώθηκε: 29/03/2020 01:20
Αίθριος
Αίθριος
 Άνεμος από calm
Άνεμος: Απνοια
Θερμοκρασία: 10°C
Σημ. Δρόσου: 8°C
Υγρασία: 88%
Βαρόμετρο: 1012 hPa
Περίληψη: Αίθριος
Ορατότητα: Μεγαλύτερη από 10 km
2020/03/28 23:20 LGKR 282320Z 00000KT CAVOK 10/08 Q1012 NOSIG
LATI - Αεροδρόμιο "Μάδερ Τερέζα"
Τίρανα(Ρίνα) - Τίρανα - Αλβανία
Γ.Πλάτ: 41.3167 - Γ.Μήκ: 19.7667 - Υψόμ: 90μ
Απόσταση από το Vouhead Weather: (ΔΒΔ) 282χλμ
Ενημερώθηκε: 29/03/2020 01:20
Μερικώς νεφελώδης
Μερικώς νεφελώδης
 Άνεμος από ΝΝΑ
Άνεμος: ΝΝΑ 4 km/h
Θερμοκρασία: 9°C
Σημ. Δρόσου: 7°C
Υγρασία: 87%
Βαρόμετρο: 1013 hPa
Σύννεφα: Μερικώς νεφελώδης
Ορατότητα: 10 km
Ανάλυση νέφωσης: Μερικώς νεφελώδης 1554 m
2020/03/28 23:20 LATI 282320Z 16002KT 9999 SCT051 09/07 Q1013 NOSIG
 
LGEL - Αεροδρόμιο στην Ελευσίνα(ΒΠΑ)
Ελευσίνα - Αττική - Ελλάδα
Γ.Πλάτ: 38.0667 - Γ.Μήκ: 23.5500 - Υψόμ: 31μ
Απόσταση από το Vouhead Weather: (Ν) 282χλμ
Ενημερώθηκε: 29/03/2020 01:20
Διάσπαρτα νέφη
Διάσπαρτα νέφη
 Άνεμος από Μεταβλητός
Άνεμος: Μεταβλητός 6 km/h
Θερμοκρασία: 9°C
Σημ. Δρόσου: 8°C
Υγρασία: 94%
Βαρόμετρο: 1011 hPa
Σύννεφα: Διάσπαρτα νέφη
Ορατότητα: 10 km
Ανάλυση νέφωσης: Διάσπαρτα νέφη 914 m
2020/03/28 23:20 LGEL 282320Z VRB03KT 9999 FEW030 09/08 Q1011
LGPZ - Αεροδρόμιο στη Πρέβεζα
Πρέβεζα(Ακτιον) - Ήπειρος - Ελλάδα
Γ.Πλάτ: 38.6167 - Γ.Μήκ: 20.7667 - Υψόμ: 4μ
Απόσταση από το Vouhead Weather: (ΝΔ) 288χλμ
Ενημερώθηκε: 29/03/2020 00:50
Μερικώς νεφελώδης
Μερικώς νεφελώδης
 Άνεμος από calm
Άνεμος: Απνοια
Θερμοκρασία: 10°C
Σημ. Δρόσου: 9°C
Υγρασία: 94%
Βαρόμετρο: 1013 hPa
Σύννεφα: Μερικώς νεφελώδης
Ορατότητα: 10 km
Ανάλυση νέφωσης: Διάσπαρτα νέφη 488 m
Μερικώς νεφελώδης 610 m
2020/03/28 22:50 LGPZ 282250Z 00000KT 9999 FEW016TCU SCT020 10/09 Q1013
 
LGRX - Αεροδρόμιο στη Πάτρα(ΒΠΑ)
Πάτρα(Αραξος) - Δυτική Ελλάδα - Ελλάδα
Γ.Πλάτ: 38.1667 - Γ.Μήκ: 21.4167 - Υψόμ: 15μ
Απόσταση από το Vouhead Weather: (ΝΝΔ) 299χλμ
Ενημερώθηκε: 29/03/2020 00:50
Μερικώς νεφελώδης
Μερικώς νεφελώδης
 Άνεμος από Μεταβλητός
Άνεμος: Μεταβλητός 6 km/h
Θερμοκρασία: 11°C
Σημ. Δρόσου: 9°C
Υγρασία: 88%
Βαρόμετρο: 1012 hPa
Σύννεφα: Μερικώς νεφελώδης
Ορατότητα: 10 km
Ανάλυση νέφωσης: Διάσπαρτα νέφη 549 m
Μερικώς νεφελώδης 914 m
2020/03/28 22:50 LGRX 282250Z VRB03KT 9999 FEW018 SCT030 11/09 Q1012
LGAV - Αεροδρόμιο "Ελευθέριος Βεμιζέλος"
Αθήνα(Σπάτα) - Αττική - Ελλάδα
Γ.Πλάτ: 37.9333 - Γ.Μήκ: 23.9500 - Υψόμ: 94μ
Απόσταση από το Vouhead Weather: (ΝΝΑ) 305χλμ
Ενημερώθηκε: 29/03/2020 01:20
Μερικώς νεφελώδης
Μερικώς νεφελώδης
 Άνεμος από Δ
Άνεμος: Δ 6 km/h
Θερμοκρασία: 9°C
Σημ. Δρόσου: 8°C
Υγρασία: 94%
Βαρόμετρο: 1012 hPa
Σύννεφα: Μερικώς νεφελώδης
Ορατότητα: 10 km
Ανάλυση νέφωσης: Μερικώς νεφελώδης 914 m
2020/03/28 23:20 LGAV 282320Z 28003KT 9999 SCT030 09/08 Q1012 NOSIG
 
LYNI - Αεροδρόμιο "Κονσταντίν Δε Γκρέιτ"
Νις - Νότια και Ανατολική Σερβία - Σερβία
Γ.Πλάτ: 43.3167 - Γ.Μήκ: 21.8833 - Υψόμ: 202μ
Απόσταση από το Vouhead Weather: (ΒΒΔ) 319χλμ
Ενημερώθηκε: 29/03/2020 01:30
Αίθριος
Αίθριος
 Άνεμος από Μεταβλητός
Άνεμος: Μεταβλητός 2 km/h
Θερμοκρασία: 6°C
Σημ. Δρόσου: 0°C
Υγρασία: 66%
Βαρόμετρο: 1012 hPa
Περίληψη: Αίθριος
Ορατότητα: Μεγαλύτερη από 10 km
2020/03/28 23:30 LYNI 282330Z VRB01KT CAVOK 06/M00 Q1012 NOSIG
LGAD - Αεροδρόμιο στην Ανδραβίδα(ΒΠΑ)
Ανδραβίδα - Δυτική Ελλάδα - Ελλάδα
Γ.Πλάτ: 37.9167 - Γ.Μήκ: 21.2667 - Υψόμ: 12μ
Απόσταση από το Vouhead Weather: (ΝΝΔ) 329χλμ
Ενημερώθηκε: 29/03/2020 01:20
Ασθενές ψιλόβροχο, Μερικώς νεφελώδης
Ασθενές ψιλόβροχο, Μερικώς νεφελώδης
 Άνεμος από calm
Άνεμος: Απνοια
Θερμοκρασία: 10°C
Σημ. Δρόσου: 9°C
Υγρασία: 94%
Βαρόμετρο: 1013 hPa
Περίληψη: Ασθενές ψιλόβροχο
Σύννεφα: Μερικώς νεφελώδης
Ορατότητα: 10 km
Ανάλυση νέφωσης: Διάσπαρτα νέφη 549 m
Μερικώς νεφελώδης 914 m
2020/03/28 23:20 LGAD 282320Z 00000KT 9999 -DZ FEW018 SCT030 10/09 Q1013
 
LGKF - Αεροδρόμιο στην Κεφαλονιά
Κεφαλονιά - Ιόνιοι Νήσοι - Ελλάδα
Γ.Πλάτ: 38.1167 - Γ.Μήκ: 20.5000 - Υψόμ: 18μ
Απόσταση από το Vouhead Weather: (ΝΔ) 346χλμ
Ενημερώθηκε: 28/03/2020 19:50
ΜΗ ΠΡΟΣΦΑΤΟ METAR
Κυρίως νεφελώδης
Κυρίως νεφελώδης
 Άνεμος από ΔΒΔ
Άνεμος: ΔΒΔ 11 km/h
Θερμοκρασία: 14°C
Σημ. Δρόσου: 10°C
Υγρασία: 77%
Βαρόμετρο: 1012 hPa
Σύννεφα: Κυρίως νεφελώδης
Ορατότητα: 10 km
Ανάλυση νέφωσης: Διάσπαρτα νέφη 366 m
Διάσπαρτα νέφη 488 m
Μερικώς νεφελώδης 610 m
Κυρίως νεφελώδης 2134 m
2020/03/28 17:50 LGKF 281750Z 29006KT 9999 FEW012 FEW016TCU SCT020 BKN070 14/10 Q1012
LGMT - Αεροδρόμιο "Οδυσσέας Ελύτης"
Λέσβος - Βόρειο Αιγαίο - Ελλάδα
Γ.Πλάτ: 39.0500 - Γ.Μήκ: 26.6000 - Υψόμ: 17μ
Απόσταση από το Vouhead Weather: (ΑΝΑ) 353χλμ
Ενημερώθηκε: 29/03/2020 00:50
Μερικώς νεφελώδης
Μερικώς νεφελώδης
 Άνεμος από calm
Άνεμος: Απνοια
Θερμοκρασία: 9°C
Σημ. Δρόσου: 7°C
Υγρασία: 87%
Βαρόμετρο: 1012 hPa
Σύννεφα: Μερικώς νεφελώδης
Ορατότητα: 10 km
Ανάλυση νέφωσης: Διάσπαρτα νέφη 610 m
Μερικώς νεφελώδης 762 m
2020/03/28 22:50 LGMT 282250Z 00000KT 9999 FEW020 SCT025 09/07 Q1012
 
LGZA - Αεροδρόμιο "Διονύσιος Σολωμός"
Ζάκυνθος - Ιόνιοι Νήσοι - Ελλάδα
Γ.Πλάτ: 37.7500 - Γ.Μήκ: 20.8667 - Υψόμ: 3μ
Απόσταση από το Vouhead Weather: (ΝΝΔ) 362χλμ
Ενημερώθηκε: 28/03/2020 19:50
ΜΗ ΠΡΟΣΦΑΤΟ METAR
Μερικώς νεφελώδης
Μερικώς νεφελώδης
 Άνεμος από calm
Άνεμος: Απνοια
Θερμοκρασία: 13°C
Σημ. Δρόσου: 10°C
Υγρασία: 82%
Βαρόμετρο: 1012 hPa
Σύννεφα: Μερικώς νεφελώδης
Ορατότητα: 10 km
Ανάλυση νέφωσης: Διάσπαρτα νέφη 549 m
Μερικώς νεφελώδης 610 m
2020/03/28 17:50 LGZA 281750Z 00000KT 9999 FEW018 SCT020 13/10 Q1012
LBGO - Αεροδρόμιο στη Γκόρνα Οριαχόβιτσα
Γκόρνα Οριαχόβιτσα - Βέλικο Τάρνοβο - Βουλγαρία
Γ.Πλάτ: 43.1500 - Γ.Μήκ: 25.7167 - Υψόμ: 86μ
Απόσταση από το Vouhead Weather: (ΒΑ) 366χλμ
Ενημερώθηκε: 29/03/2020 01:30
Αίθριος
Αίθριος
 Άνεμος από ΒΔ
Άνεμος: ΒΔ 4 km/h
Θερμοκρασία: 5°C
Σημ. Δρόσου: 5°C
Υγρασία: 100%
Βαρόμετρο: 1011 hPa
Σύννεφα: Αίθριος
Ορατότητα: 10 km
2020/03/28 23:30 LBGO 282330Z AUTO 31002KT 9999 NCD 05/05 Q1011
 
LGHI - Αεροδρόμιο "Όμηρος"
Χίος - Ιόνιοι Νήσοι - Ελλάδα
Γ.Πλάτ: 38.3167 - Γ.Μήκ: 26.1167 - Υψόμ: 4μ
Απόσταση από το Vouhead Weather: (ΝΑ) 368χλμ
Ενημερώθηκε: 28/03/2020 22:50
ΜΗ ΠΡΟΣΦΑΤΟ METAR
Διάσπαρτα νέφη
Διάσπαρτα νέφη
 Άνεμος από calm
Άνεμος: Απνοια
Θερμοκρασία: 11°C
Σημ. Δρόσου: 8°C
Υγρασία: 82%
Βαρόμετρο: 1012 hPa
Σύννεφα: Διάσπαρτα νέφη
Ορατότητα: 10 km
Ανάλυση νέφωσης: Διάσπαρτα νέφη 610 m
2020/03/28 20:50 LGHI 282050Z 00000KT 9999 FEW020 11/08 Q1012
LYPG - Αεροδρόμιο στη Ποντγκόριτσα
Ποντγκόριτσα - Γκολούμποβτσι - Μαυροβούνιο
Γ.Πλάτ: 42.3667 - Γ.Μήκ: 19.2500 - Υψόμ: 43μ
Απόσταση από το Vouhead Weather: (ΒΔ) 369χλμ
Ενημερώθηκε: 29/03/2020 01:30
Μερικώς νεφελώδης
Μερικώς νεφελώδης
 Άνεμος από Β
Άνεμος: Β 6 km/h
Θερμοκρασία: 11°C
Σημ. Δρόσου: 7°C
Υγρασία: 77%
Βαρόμετρο: 1013 hPa
Σύννεφα: Μερικώς νεφελώδης
Ορατότητα: 10 km
Ανάλυση νέφωσης: Μερικώς νεφελώδης 2438 m
2020/03/28 23:30 LYPG 282330Z 01003KT 9999 SCT080 11/07 Q1013 NOSIG
 
LGSO - Αεροδρόμιο "Δημήτριος Βικέλας"
Σύρος - Νότιο Αιγαίο - Ελλάδα
Γ.Πλάτ: 37.4167 - Γ.Μήκ: 24.9500 - Υψόμ: 72μ
Απόσταση από το Vouhead Weather: (ΝΝΑ) 390χλμ
Ενημερώθηκε: 29/03/2020 01:20
Ασθενής βροχή
Ασθενής βροχή
 Άνεμος από ΑΒΑ
Άνεμος: ΑΒΑ 9 km/h
Θερμοκρασία: 12°C
Σημ. Δρόσου: 9°C
Υγρασία: 82%
Βαρόμετρο: 1011 hPa
Περίληψη: Ασθενής βροχή
2020/03/28 23:20 LGSO 282320Z AUTO 07005KT 010V090 //// -RA ////// 12/09 Q1011 RE//
LGKL - Αεροδρόμιο στη Καλαμάτα(ΒΠΑ)
Καλαμάτα - Πελοπόννησος - Ελλάδα
Γ.Πλάτ: 37.0667 - Γ.Μήκ: 22.0167 - Υψόμ: 8μ
Απόσταση από το Vouhead Weather: (ΝΝΔ) 398χλμ
Ενημερώθηκε: 29/03/2020 01:20

 Άνεμος από Μεταβλητός
Άνεμος: Μεταβλητός 2 km/h
Θερμοκρασία: 8°C
Σημ. Δρόσου: 7°C
Υγρασία: 93%
Βαρόμετρο: 1013 hPa
2020/03/28 23:20 LGKL 282320Z AUTO VRB01KT //// // ////// 08/07 Q1013 RE//
 
LIBY - Αεροδρόμιο στη Σάντα Μαρία ντι Λέουκα
Σάντα Μαρία ντι Λέουκα - Απουλία(Λέτσε) - Ιταλία
Γ.Πλάτ: 39.8167 - Γ.Μήκ: 18.3500 - Υψόμ: 112μ
Απόσταση από το Vouhead Weather: (Δ) 402χλμ
Ενημερώθηκε: 28/03/2020 19:55
ΜΗ ΠΡΟΣΦΑΤΟ METAR
Αίθριος
Αίθριος
 Άνεμος από ΒΒΔ
Άνεμος: ΒΒΔ 11 km/h
Θερμοκρασία: 10°C
Ψυχρότητα Ανέμου: 8°C
Σημ. Δρόσου: 8°C
Υγρασία: 88%
Βαρόμετρο: 1012 hPa
Περίληψη: Αίθριος
Ορατότητα: Μεγαλύτερη από 10 km
2020/03/28 17:55 LIBY 281755Z 33006KT CAVOK 10/08 Q1012 RMK SCT SCT080 QUK / QUL / VIS MAR 12 KM VIS MIN 9999
LGMK - Αεροδρόμιο στη Μύκονο
Μύκονος - Νότιο Αιγαίο - Ελλάδα
Γ.Πλάτ: 37.4333 - Γ.Μήκ: 25.3500 - Υψόμ: 123μ
Απόσταση από το Vouhead Weather: (ΝΝΑ) 404χλμ
Ενημερώθηκε: 28/03/2020 19:20
ΜΗ ΠΡΟΣΦΑΤΟ METAR
Κυρίως νεφελώδης
Κυρίως νεφελώδης
 Άνεμος από ΒΑ
Άνεμος: ΒΑ 9 km/h
Θερμοκρασία: 14°C
Σημ. Δρόσου: 9°C
Υγρασία: 72%
Βαρόμετρο: 1011 hPa
Σύννεφα: Κυρίως νεφελώδης
Ορατότητα: 10 km
Ανάλυση νέφωσης: Διάσπαρτα νέφη 610 m
Κυρίως νεφελώδης 762 m
2020/03/28 17:20 LGMK 281720Z 04005KT 9999 FEW020 BKN025 14/09 Q1011
 
LYTV - Αεροδρόμιο στο Τιβάτ
Τιβάτ - Τιβάτ - Μαυροβούνιο
Γ.Πλάτ: 42.3833 - Γ.Μήκ: 18.7167 - Υψόμ: 5μ
Απόσταση από το Vouhead Weather: (ΔΒΔ) 408χλμ
Ενημερώθηκε: 29/03/2020 01:30
Αίθριος
Αίθριος
 Άνεμος από calm
Άνεμος: Απνοια
Θερμοκρασία: 8°C
Σημ. Δρόσου: 8°C
Υγρασία: 100%
Βαρόμετρο: 1012 hPa
Περίληψη: Αίθριος
Ορατότητα: Μεγαλύτερη από 10 km
2020/03/28 23:30 LYTV 282330Z 00000KT CAVOK 08/08 Q1012
LIBN - Αεροδρόμιο στη Γκαλατίνα(ΒΠΑ)
Γκαλατίνα - Απουλία(Λέτσε) - Ιταλία
Γ.Πλάτ: 40.2167 - Γ.Μήκ: 18.1333 - Υψόμ: 61μ
Απόσταση από το Vouhead Weather: (Δ) 412χλμ
Ενημερώθηκε: 29/03/2020 00:55
Μερικώς νεφελώδης
Μερικώς νεφελώδης
 Άνεμος από Μεταβλητός
Άνεμος: Μεταβλητός 2 km/h
Θερμοκρασία: 6°C
Σημ. Δρόσου: 5°C
Υγρασία: 93%
Βαρόμετρο: 1014 hPa
Σύννεφα: Μερικώς νεφελώδης
Ορατότητα: 7 km
2020/03/28 22:55 LIBN 282255Z VRB01KT 7000 NSC 06/05 Q1014 RMK SKC VIS MIN 7000 WIND THR14 VRB01KT WIND THR32 VRB01KT WHT
 
LYKV - Αεροδρόμιο στο Κράλιεβο & Λάντεβτσι
Κράλιεβο(Όμπρβα) - Σουμαντίγια και Δ. Σερβία - Σερβία
Γ.Πλάτ: 43.8167 - Γ.Μήκ: 20.5833 - Υψόμ: 209μ
Απόσταση από το Vouhead Weather: (ΒΒΔ) 412χλμ
Ενημερώθηκε: 29/03/2020 01:30
Αίθριος
Αίθριος
 Άνεμος από Μεταβλητός
Άνεμος: Μεταβλητός 4 km/h
Θερμοκρασία: 3°C
Σημ. Δρόσου: 3°C
Υγρασία: 100%
Βαρόμετρο: 1013 hPa
Περίληψη: Αίθριος
Ορατότητα: Μεγαλύτερη από 10 km
2020/03/28 23:30 LYKV 282330Z VRB02KT CAVOK 03/03 Q1013 NOSIG
LTBU - Αεροδρόμιο στο Τσορλού(ΒΠΑ)
Τσορλού - Μαρμαράς(Τεκιρντάγ-Ραιδεστός) - Τουρκία
Γ.Πλάτ: 41.1167 - Γ.Μήκ: 27.9167 - Υψόμ: 173μ
Απόσταση από το Vouhead Weather: (Α) 420χλμ
Ενημερώθηκε: 29/03/2020 01:20
Ασθενής βροχή, Showers, Αχλύς, Κυρίως νεφελώδης
Ασθενής βροχή, Showers, Αχλύς, Κυρίως νεφελώδης
 Άνεμος από ΔΝΔ
Άνεμος: ΔΝΔ 15 km/h
Θερμοκρασία: 8°C
Ψυχρότητα Ανέμου: 5°C
Σημ. Δρόσου: 8°C
Υγρασία: 100%
Βαρόμετρο: 1010 hPa
Περίληψη: Ασθενής βροχή, Showers, Αχλύς
Σύννεφα: Κυρίως νεφελώδης
Ορατότητα: 2 km
Ανάλυση νέφωσης: Κυρίως νεφελώδης 91 m
Κυρίως νεφελώδης 914 m
2020/03/28 23:20 LTBU 282320Z 25008KT 2000 -SHRA BR BKN003 BKN030 08/08 Q1010
 
LRCV - Αεροδρόμιο στη Κραϊόβα
Κραϊόβα - Δολζ - Ρουμανία
Γ.Πλάτ: 44.3167 - Γ.Μήκ: 23.8833 - Υψόμ: 191μ
Απόσταση από το Vouhead Weather: (Β) 424χλμ
Ενημερώθηκε: 29/03/2020 01:30
Αίθριος
Αίθριος
 Άνεμος από Δ
Άνεμος: Δ 7 km/h
Θερμοκρασία: 6°C
Ψυχρότητα Ανέμου: 4°C
Σημ. Δρόσου: 2°C
Υγρασία: 76%
Βαρόμετρο: 1010 hPa
Περίληψη: Αίθριος
Ορατότητα: Μεγαλύτερη από 10 km
2020/03/28 23:30 LRCV 282330Z 28004KT CAVOK 06/02 Q1010
LIBR - Αεροδρόμιο στο Μπρίντιζι
(Ανεπίσημο όνομα αεροδρομίου: Ντελ Σαλέντο)
Μπρίντιζι(Πάπολα-Καζάλε) - Απουλία(Μπρίντιζι) - Ιταλία
Γ.Πλάτ: 40.6500 - Γ.Μήκ: 17.9500 - Υψόμ: 10μ
Απόσταση από το Vouhead Weather: (Δ) 424χλμ
Ενημερώθηκε: 29/03/2020 01:20
Αίθριος
Αίθριος
 Άνεμος από Δ
Άνεμος: Δ 13 km/h
Θερμοκρασία: 9°C
Ψυχρότητα Ανέμου: 7°C
Σημ. Δρόσου: 7°C
Υγρασία: 87%
Βαρόμετρο: 1014 hPa
Περίληψη: Αίθριος
Ορατότητα: Μεγαλύτερη από 10 km
2020/03/28 23:20 LIBR 282320Z 26007KT CAVOK 09/07 Q1014
 
LBBG - Αεροδρόμιο στo Μπουργκάς
Μπουργκάς(Σαράφοβο) - Μπουργκάς - Βουλγαρία
Γ.Πλάτ: 42.5000 - Γ.Μήκ: 27.4833 - Υψόμ: 28μ
Απόσταση από το Vouhead Weather: (ΑΒΑ) 432χλμ
Ενημερώθηκε: 29/03/2020 01:30
Αίθριος
Αίθριος
 Άνεμος από ΔΝΔ
Άνεμος: ΔΝΔ 15 km/h
Θερμοκρασία: 8°C
Ψυχρότητα Ανέμου: 5°C
Σημ. Δρόσου: 4°C
Υγρασία: 76%
Βαρόμετρο: 1008 hPa
Περίληψη: Αίθριος
Ορατότητα: Μεγαλύτερη από 10 km
2020/03/28 23:30 LBBG 282330Z 25008KT CAVOK 08/04 Q1008 NOSIG
LGPA - Αεροδρόμιο "Παντελαίειο"
Πάρος - Νότιο Αιγαίο - Ελλάδα
Γ.Πλάτ: 37.0000 - Γ.Μήκ: 25.0667 - Υψόμ: 36μ
Απόσταση από το Vouhead Weather: (ΝΝΑ) 436χλμ
Ενημερώθηκε: 29/03/2020 01:20

 Άνεμος από Μεταβλητός
Άνεμος: Μεταβλητός 6 km/h
Θερμοκρασία: 11°C
Σημ. Δρόσου: 10°C
Υγρασία: 94%
Βαρόμετρο: 1011 hPa
2020/03/28 23:20 LGPA 282320Z AUTO VRB03KT //// // ////// 11/10 Q1011 RE//
 
LGNX - Αεροδρόμιο στη Νάξο
Νάξος - Νότιο Αιγαίο - Ελλάδα
Γ.Πλάτ: 37.0833 - Γ.Μήκ: 25.3667 - Υψόμ: 4μ
Απόσταση από το Vouhead Weather: (ΝΝΑ) 439χλμ
Ενημερώθηκε: 28/03/2020 08:50
ΜΗ ΠΡΟΣΦΑΤΟ METAR
Διάσπαρτα νέφη
Διάσπαρτα νέφη
 Άνεμος από ΔΒΔ
Άνεμος: ΔΒΔ 17 km/h
Θερμοκρασία: 13°C
Σημ. Δρόσου: 8°C
Υγρασία: 72%
Βαρόμετρο: 1013 hPa
Σύννεφα: Διάσπαρτα νέφη
Ορατότητα: 10 km
Ανάλυση νέφωσης: Διάσπαρτα νέφη 762 m
2020/03/28 06:50 LGNX 280650Z 30009KT 9999 FEW025 13/08 Q1013
LTBJ - Αεροδρόμιο "Αντνάν Μεντερές"
Σμύρνη - Αιγαίο(Σμύρνη) - Τουρκία
Γ.Πλάτ: 38.2667 - Γ.Μήκ: 27.1333 - Υψόμ: 120μ
Απόσταση από το Vouhead Weather: (ΝΑ) 439χλμ
Ενημερώθηκε: 29/03/2020 01:20
Κυρίως νεφελώδης
Κυρίως νεφελώδης
 Άνεμος από Μεταβλητός
Άνεμος: Μεταβλητός 2 km/h
Θερμοκρασία: 7°C
Σημ. Δρόσου: 6°C
Υγρασία: 93%
Βαρόμετρο: 1011 hPa
Σύννεφα: Κυρίως νεφελώδης
Ορατότητα: 10 km
Ανάλυση νέφωσης: Μερικώς νεφελώδης 914 m
Κυρίως νεφελώδης 3048 m
2020/03/28 23:20 LTBJ 282320Z VRB01KT 9999 SCT030 BKN100 07/06 Q1011 NOSIG
 
LDDU - Αεροδρόμιο στο Ντουμπρόβνικ
Ντουμπρόβνικ - Ντουμπρόβνικ Νερέτβα - Κροατία
Γ.Πλάτ: 42.5667 - Γ.Μήκ: 18.2667 - Υψόμ: 165μ
Απόσταση από το Vouhead Weather: (ΔΒΔ) 450χλμ
Ενημερώθηκε: 29/03/2020 01:30
Αίθριος
Αίθριος
 Άνεμος από Δ
Άνεμος: Δ 7 km/h
Θερμοκρασία: 10°C
Ψυχρότητα Ανέμου: 9°C
Σημ. Δρόσου: 8°C
Υγρασία: 88%
Βαρόμετρο: 1013 hPa
Περίληψη: Αίθριος
Ορατότητα: Μεγαλύτερη από 10 km
2020/03/28 23:30 LDDU 282330Z 28004KT CAVOK 10/08 Q1013
LYUZ - Αεροδρόμιο στην Ούζιτσε & Πόνικβε
(Ανεπίσημο όνομα αεροδρομίου: Λέπα Γκλάβα)
Ούζιτσε - Σουμαντίγια και Δ. Σερβία - Σερβία
Γ.Πλάτ: 43.9000 - Γ.Μήκ: 19.7000 - Υψόμ: 904μ
Απόσταση από το Vouhead Weather: (ΒΔ) 458χλμ
Ενημερώθηκε: 29/03/2020 01:30
Αίθριος
Αίθριος
 Άνεμος από ΒΔ
Άνεμος: ΒΔ 6 km/h
Θερμοκρασία: 4°C
Σημ. Δρόσου: -1°C
Υγρασία: 70%
Βαρόμετρο: 1013 hPa
Περίληψη: Αίθριος
Ορατότητα: Μεγαλύτερη από 10 km
2020/03/28 23:30 LYUZ 282330Z AUTO 32003KT CAVOK 04/M01 Q1013
 
LGSM - Αεροδρόμιο "Αρίσταρχος ο Σάμιος"
Σάμος - Βόρειο Αιγαίο - Ελλάδα
Γ.Πλάτ: 37.6833 - Γ.Μήκ: 26.9167 - Υψόμ: 6μ
Απόσταση από το Vouhead Weather: (ΝΑ) 467χλμ
Ενημερώθηκε: 29/03/2020 00:50
Μερικώς νεφελώδης
Μερικώς νεφελώδης
 Άνεμος από calm
Άνεμος: Απνοια
Θερμοκρασία: 10°C
Σημ. Δρόσου: 7°C
Υγρασία: 82%
Βαρόμετρο: 1011 hPa
Σύννεφα: Μερικώς νεφελώδης
Ορατότητα: 10 km
Ανάλυση νέφωσης: Διάσπαρτα νέφη 610 m
Μερικώς νεφελώδης 914 m
2020/03/28 22:50 LGSM 282250Z 00000KT 9999 FEW020 SCT030 10/07 Q1011
LIBG - Αεροδρόμιο "Μαρτσέλο Αρλόττα"
Μουντιάζι(Ταράντο-Γκροτάλιε)-Απουλία(Ταράντο)-Ιταλία
Γ.Πλάτ: 40.5167 - Γ.Μήκ: 17.3833 - Υψόμ: 69μ
Απόσταση από το Vouhead Weather: (Δ) 472χλμ
Ενημερώθηκε: 28/03/2020 20:50
ΜΗ ΠΡΟΣΦΑΤΟ METAR
Διάσπαρτα νέφη
Διάσπαρτα νέφη
 Άνεμος από ΒΔ
Άνεμος: ΒΔ 6 km/h
Θερμοκρασία: 9°C
Σημ. Δρόσου: 7°C
Υγρασία: 87%
Βαρόμετρο: 1013 hPa
Σύννεφα: Διάσπαρτα νέφη
Ορατότητα: 10 km
Ανάλυση νέφωσης: Διάσπαρτα νέφη 1372 m
2020/03/28 18:50 LIBG 281850Z 32003KT 9999 FEW045 09/07 Q1013
 
LGKC - Αεροδρόμιο στα Κύθηρα
Κύθηρα(Επτάνησα) - Αττική(Νήσοι) - Ελλάδα
Γ.Πλάτ: 36.2833 - Γ.Μήκ: 23.0167 - Υψόμ: 319μ
Απόσταση από το Vouhead Weather: (Ν) 476χλμ
Ενημερώθηκε: 27/03/2020 13:50
ΜΗ ΠΡΟΣΦΑΤΟ METAR
Διάσπαρτα νέφη
Διάσπαρτα νέφη
 Άνεμος από Δ
Άνεμος: Δ 33 km/h, Ριπή: 52 km/h
Θερμοκρασία: 14°C
Σημ. Δρόσου: 8°C
Υγρασία: 67%
Βαρόμετρο: 1011 hPa
Σύννεφα: Διάσπαρτα νέφη
Ορατότητα: 10 km
Ανάλυση νέφωσης: Διάσπαρτα νέφη 610 m
2020/03/27 11:50 LGKC 271150Z 27018G28KT 9999 FEW020 14/08 Q1011
LTBA - Αεροδρόμιο "Ατατούρκ"
Κωνσταντινούπολη - Μαρμαράς(Κων/πολη) - Τουρκία
Γ.Πλάτ: 40.9667 - Γ.Μήκ: 28.8167 - Υψόμ: 37μ
Απόσταση από το Vouhead Weather: (Α) 494χλμ
Ενημερώθηκε: 29/03/2020 01:20
Ασθενής βροχή, Showers, Κυρίως νεφελώδης
Ασθενής βροχή, Showers, Κυρίως νεφελώδης
 Άνεμος από ΔΝΔ
Άνεμος: ΔΝΔ 20 km/h
Θερμοκρασία: 9°C
Ψυχρότητα Ανέμου: 6°C
Σημ. Δρόσου: 8°C
Υγρασία: 94%
Βαρόμετρο: 1010 hPa
Περίληψη: Ασθενής βροχή, Showers
Σύννεφα: Κυρίως νεφελώδης
Ορατότητα: 8 km
Ανάλυση νέφωσης: Κυρίως νεφελώδης 762 m
Κυρίως νεφελώδης 2438 m
2020/03/28 23:20 LTBA 282320Z 24011KT 8000 -SHRA BKN025 BKN080 09/08 Q1010 NOSIG
   Μην χρησιμοποιήσετε τα στοιχεία για αποφάσεις που αφορούν ζωές και πάσης φύσεως ιδιοκτησίες  
ΠΗΓΑΙΝΕΤΕ ΣΤΗΝ ΙΟΝΙΑ ΠΗΓΑΙΝΕΤΕ ΣΤΗΝ ΡΕΑ ΠΗΓΑΙΝΕΤΕ ΣΤΗΝ ΚΗΦΙΣΙΑ ΠΗΓΑΙΝΕΤΕ ΣΤΗΝ ΣΥΡΟ ΠΗΓΑΙΝΕΤΕ ΣΤΗΝ ΔΕΞΑΜΕΝΗ (BOLTEK) ΠΗΓΑΙΝΕΤΕ ΣΤΗΝ ΔΕΞΑΜΕΝΗ (LR) Γενική Γραμματεία Πολιτικής Προστασίας Ενιαίος Ευρωπαϊκός Αριθμός Έκτακτης Ανάγκης Βίντεο για το Καστελλόριζο(Μεγίστη) από τα αρχεία της ΕΡΤ Ιστοσελίδα Δήμου Μεγίστης Δείτε το μεγαλύτερο